createdAt,value
2023-03-24T00:30:25.275Z,6.77
2023-03-24T00:32:52.424Z,6.83
2023-03-24T00:35:19.462Z,6.81
2023-03-24T00:37:46.789Z,6.80
2023-03-24T00:40:16.656Z,6.76
2023-03-24T00:42:45.871Z,6.71
2023-03-24T00:45:19.794Z,6.83
2023-03-24T00:47:49.894Z,6.86
2023-03-24T00:50:20.606Z,6.75
2023-03-24T00:52:49.275Z,6.83
2023-03-24T00:55:16.253Z,6.83
2023-03-24T00:57:50.845Z,6.83
2023-03-24T01:00:24.353Z,6.91
2023-03-24T01:02:53.952Z,6.91
2023-03-24T01:05:28.998Z,6.93
2023-03-24T01:08:03.606Z,7.01
2023-03-24T01:10:33.760Z,6.96
2023-03-24T01:13:00.947Z,7.01
2023-03-24T01:15:33.633Z,7.03
2023-03-24T01:18:03.333Z,6.98
2023-03-24T01:20:33.599Z,7.06
2023-03-24T01:23:01.576Z,7.10
2023-03-24T01:25:28.115Z,7.04
2023-03-24T01:27:54.774Z,7.08
2023-03-24T01:30:26.622Z,7.10
2023-03-24T01:32:53.675Z,7.03
2023-03-24T01:35:21.982Z,7.13
2023-03-24T01:37:49.485Z,7.14
2023-03-24T01:40:24.873Z,7.08
2023-03-24T01:42:51.685Z,6.88
2023-03-24T01:46:12.275Z,6.91
2023-03-24T01:48:42.269Z,6.94
2023-03-24T01:51:12.129Z,6.91
2023-03-24T01:53:44.815Z,6.82
2023-03-24T01:56:13.243Z,6.89
2023-03-24T01:58:45.888Z,6.90
2023-03-24T02:01:12.746Z,6.87
2023-03-24T02:03:41.869Z,6.89
2023-03-24T02:09:55.023Z,6.78
2023-03-24T02:12:21.813Z,6.66
2023-03-24T02:14:49.353Z,6.66
2023-03-24T02:17:25.682Z,6.66
2023-03-24T02:20:16.425Z,6.65
2023-03-24T02:23:04.100Z,6.70
2023-03-24T02:25:48.866Z,6.71
2023-03-24T02:28:36.939Z,6.72
2023-03-24T02:31:19.408Z,6.71
2023-03-24T02:34:25.377Z,6.71
2023-03-24T02:37:10.725Z,6.73
2023-03-24T02:40:08.147Z,6.76
2023-03-24T02:42:47.908Z,6.79
2023-03-24T02:45:29.580Z,6.87
2023-03-24T02:48:11.080Z,6.84
2023-03-24T02:51:03.623Z,6.83
2023-03-24T02:53:39.528Z,6.96
2023-03-24T02:56:09.822Z,6.78
2023-03-24T02:58:49.603Z,6.71
2023-03-24T03:01:31.199Z,6.69
2023-03-24T03:04:03.071Z,6.76
2023-03-24T03:06:34.565Z,6.69
2023-03-24T03:09:07.730Z,6.69
2023-03-24T03:11:34.453Z,6.70
2023-03-24T03:14:06.763Z,6.70
2023-03-24T03:16:46.597Z,6.69
2023-03-24T03:19:21.035Z,6.71
2023-03-24T03:21:50.581Z,6.71
2023-03-24T03:24:27.037Z,6.71
2023-03-24T03:27:02.457Z,6.81
2023-03-24T03:29:35.568Z,6.77
2023-03-24T03:32:08.159Z,6.76
2023-03-24T03:34:46.949Z,6.82
2023-03-24T03:37:27.797Z,6.80
2023-03-24T03:40:02.608Z,6.84
2023-03-24T03:42:29.162Z,6.87
2023-03-24T03:44:55.890Z,6.81
2023-03-24T03:47:23.112Z,6.74
2023-03-24T03:49:51.254Z,6.78
2023-03-24T03:52:19.020Z,6.75
2023-03-24T03:54:45.598Z,6.77
2023-03-24T03:57:14.602Z,6.80
2023-03-24T03:59:41.233Z,6.83
2023-03-24T04:02:29.186Z,6.88
2023-03-24T04:05:26.290Z,6.82
2023-03-24T04:08:03.964Z,6.86
2023-03-24T04:10:48.799Z,6.88
2023-03-24T04:13:21.427Z,6.90
2023-03-24T04:15:56.976Z,6.86
2023-03-24T04:18:32.100Z,6.87
2023-03-24T04:21:07.640Z,6.88
2023-03-24T04:23:46.446Z,6.92
2023-03-24T04:26:26.581Z,6.92
2023-03-24T04:29:17.904Z,6.94
2023-03-24T04:31:53.639Z,6.95
2023-03-24T04:37:03.981Z,6.95
2023-03-24T04:39:35.689Z,6.96
2023-03-24T04:42:04.526Z,7.02
2023-03-24T04:44:33.389Z,7.01
2023-03-24T04:47:02.620Z,7.05
2023-03-24T04:49:29.541Z,7.03
2023-03-24T04:51:56.552Z,7.11
2023-03-24T04:54:23.795Z,7.18
2023-03-24T04:56:52.885Z,7.19
2023-03-24T04:59:19.809Z,7.18
2023-03-24T05:01:52.549Z,7.16
2023-03-24T05:04:21.792Z,7.16
2023-03-24T05:06:51.605Z,7.18
2023-03-24T05:09:21.401Z,7.22
2023-03-24T05:11:48.398Z,7.22
2023-03-24T05:14:15.649Z,7.28
2023-03-24T05:16:42.442Z,7.30
2023-03-24T05:19:09.246Z,7.30
2023-03-24T05:21:36.038Z,7.35
2023-03-24T05:24:02.867Z,7.33
2023-03-24T05:26:31.326Z,7.32
2023-03-24T05:28:59.641Z,7.37
2023-03-24T05:31:26.110Z,7.35
2023-03-24T05:33:52.625Z,7.34
2023-03-24T05:36:19.149Z,7.36
2023-03-24T05:38:45.721Z,7.38
2023-03-24T05:41:12.331Z,7.42
2023-03-24T05:43:38.784Z,7.38
2023-03-24T05:46:05.555Z,7.36
2023-03-24T05:48:32.280Z,7.38
2023-03-24T05:50:58.718Z,7.39
2023-03-24T05:53:25.357Z,7.43
2023-03-24T05:55:53.634Z,7.38
2023-03-24T05:58:21.471Z,7.38
2023-03-24T06:00:48.084Z,7.45
2023-03-24T06:03:17.287Z,7.47
2023-03-24T06:05:46.124Z,7.50
2023-03-24T06:08:13.109Z,7.52
2023-03-24T06:10:40.649Z,7.51
2023-03-24T06:13:09.044Z,7.54
2023-03-24T06:15:36.235Z,7.51
2023-03-24T06:18:05.294Z,7.53
2023-03-24T06:20:32.185Z,7.54
2023-03-24T06:22:59.884Z,7.58
2023-03-24T06:25:28.584Z,7.66
2023-03-24T06:27:55.291Z,7.70
2023-03-24T06:30:21.854Z,7.72
2023-03-24T06:32:48.736Z,7.78
2023-03-24T06:35:17.364Z,7.83
2023-03-24T06:37:44.969Z,7.85
2023-03-24T06:40:15.789Z,7.95
2023-03-24T06:42:42.499Z,7.96
2023-03-24T06:45:09.971Z,8.01
2023-03-24T06:47:39.506Z,8.01
2023-03-24T06:50:10.477Z,7.99
2023-03-24T06:52:37.316Z,8.09
2023-03-24T06:55:05.656Z,8.16
2023-03-24T06:57:32.232Z,8.14
2023-03-24T06:59:58.670Z,8.09
2023-03-24T07:02:25.303Z,8.13
2023-03-24T07:05:10.662Z,8.10
2023-03-24T07:08:16.699Z,8.17
2023-03-24T07:10:24.044Z,8.26
2023-03-24T07:12:50.490Z,8.29
2023-03-24T07:15:17.168Z,8.29
2023-03-24T07:17:43.675Z,8.24
2023-03-24T07:20:10.558Z,8.32
2023-03-24T07:22:37.103Z,8.42
2023-03-24T07:25:04.955Z,8.50
2023-03-24T07:27:34.998Z,8.64
2023-03-24T07:30:02.304Z,8.90
2023-03-24T07:32:35.057Z,9.16
2023-03-24T07:35:02.644Z,9.30
2023-03-24T07:37:29.097Z,9.23
2023-03-24T07:39:56.331Z,9.05
2023-03-24T07:42:22.935Z,9.00
2023-03-24T07:44:49.458Z,8.92
2023-03-24T07:47:16.062Z,9.03
2023-03-24T07:49:42.590Z,8.90
2023-03-24T07:52:09.236Z,8.85
2023-03-24T07:54:35.983Z,8.74
2023-03-24T07:57:02.530Z,8.75
2023-03-24T07:59:29.816Z,8.68
2023-03-24T08:01:59.809Z,8.61
2023-03-24T08:04:29.417Z,8.63
2023-03-24T08:06:55.903Z,8.59
2023-03-24T08:09:24.354Z,8.50
2023-03-24T08:11:51.070Z,8.46
2023-03-24T08:14:17.712Z,8.46
2023-03-24T08:16:46.427Z,8.45
2023-03-24T08:19:13.273Z,8.44
2023-03-24T08:21:40.196Z,8.40
2023-03-24T08:24:07.482Z,8.42
2023-03-24T08:26:35.535Z,8.35
2023-03-24T08:29:03.046Z,8.40
2023-03-24T08:31:37.226Z,8.37
2023-03-24T08:34:06.588Z,8.33
2023-03-24T08:36:33.481Z,8.33
2023-03-24T08:39:01.602Z,8.41
2023-03-24T08:41:35.066Z,8.38
2023-03-24T08:44:07.140Z,8.38
2023-03-24T08:46:34.603Z,8.37
2023-03-24T08:49:02.461Z,8.40
2023-03-24T08:51:30.058Z,8.42
2023-03-24T08:53:56.648Z,8.50
2023-03-24T08:56:24.003Z,8.61
2023-03-24T08:58:53.459Z,8.67
2023-03-24T09:01:23.408Z,8.57
2023-03-24T09:03:50.039Z,8.69
2023-03-24T09:06:17.327Z,8.81
2023-03-24T09:08:43.821Z,8.80
2023-03-24T09:11:18.761Z,8.83
2023-03-24T09:13:45.987Z,8.76
2023-03-24T09:16:12.574Z,8.79
2023-03-24T09:18:39.844Z,8.80
2023-03-24T09:21:07.752Z,8.74
2023-03-24T09:23:34.923Z,8.78
2023-03-24T09:26:02.660Z,8.84
2023-03-24T09:28:29.234Z,8.82
2023-03-24T09:31:03.820Z,8.90
2023-03-24T09:33:31.053Z,9.00
2023-03-24T09:36:00.764Z,9.17
2023-03-24T09:38:31.491Z,9.59
2023-03-24T09:41:03.294Z,9.96
2023-03-24T09:43:52.128Z,10.37
2023-03-24T09:46:31.277Z,10.43
2023-03-24T09:48:58.398Z,10.44
2023-03-24T09:51:29.539Z,10.58
2023-03-24T09:54:14.502Z,10.61
2023-03-24T09:56:44.485Z,10.55
2023-03-24T09:59:17.900Z,10.84
2023-03-24T10:18:18.642Z,10.47
2023-03-24T10:20:54.918Z,10.36
2023-03-24T10:23:36.539Z,10.36
2023-03-24T10:26:18.043Z,10.19
2023-03-24T10:29:10.192Z,10.34
2023-03-24T10:31:38.769Z,10.53
2023-03-24T10:34:09.581Z,10.94
2023-03-24T10:36:38.380Z,11.19
2023-03-24T10:39:18.591Z,11.72
2023-03-24T10:41:49.055Z,12.05
2023-03-24T10:44:15.746Z,11.83
2023-03-24T10:46:54.924Z,11.95
2023-03-24T10:49:23.332Z,11.84
2023-03-24T10:51:52.341Z,11.69
2023-03-24T10:54:22.723Z,11.45
2023-03-24T11:27:28.234Z,13.57
